createdAt,value
2023-03-12T00:02:09.965Z,2.00
2023-03-12T00:04:58.709Z,1.90
2023-03-12T00:07:47.453Z,2.00
2023-03-12T00:10:36.712Z,1.80
2023-03-12T00:13:25.537Z,2.10
2023-03-12T00:16:17.158Z,2.00
2023-03-12T00:19:05.935Z,2.00
2023-03-12T00:21:54.784Z,1.90
2023-03-12T00:24:43.642Z,2.10
2023-03-12T00:27:32.684Z,2.10
2023-03-12T00:30:21.765Z,2.20
2023-03-12T00:33:12.885Z,2.20
2023-03-12T00:36:02.328Z,2.10
2023-03-12T00:38:51.110Z,2.20
2023-03-12T00:41:39.805Z,2.10
2023-03-12T00:44:29.136Z,2.10
2023-03-12T00:47:17.842Z,2.10
2023-03-12T00:50:09.024Z,2.00
2023-03-12T00:52:57.963Z,1.90
2023-03-12T00:55:46.772Z,2.00
2023-03-12T00:58:35.503Z,2.00
2023-03-12T01:01:24.723Z,2.00
2023-03-12T01:04:13.840Z,2.10
2023-03-12T01:07:04.010Z,2.20
2023-03-12T01:09:52.704Z,2.10
2023-03-12T01:12:41.423Z,2.00
2023-03-12T01:15:31.016Z,2.10
2023-03-12T01:18:19.714Z,2.00
2023-03-12T01:21:08.610Z,1.90
2023-03-12T01:23:58.994Z,2.10
2023-03-12T01:26:47.777Z,2.10
2023-03-12T01:29:36.481Z,2.10
2023-03-12T01:32:25.440Z,2.10
2023-03-12T01:35:14.501Z,2.10
2023-03-12T01:38:03.425Z,2.00
2023-03-12T01:40:53.480Z,2.10
2023-03-12T01:43:43.233Z,2.10
2023-03-12T01:46:34.881Z,2.20
2023-03-12T01:49:33.441Z,2.20
2023-03-12T01:52:25.914Z,2.30
2023-03-12T01:55:18.964Z,2.30
2023-03-12T01:58:11.168Z,2.30
2023-03-12T02:01:00.858Z,2.30
2023-03-12T02:03:53.224Z,2.20
2023-03-12T02:06:49.538Z,2.20
2023-03-12T02:09:42.373Z,2.20
2023-03-12T02:12:31.267Z,2.30
2023-03-12T02:15:21.730Z,2.30
2023-03-12T02:18:14.821Z,2.50
2023-03-12T02:21:15.088Z,2.40
2023-03-12T02:24:12.420Z,2.40
2023-03-12T02:27:03.619Z,2.30
2023-03-12T02:29:52.726Z,2.30
2023-03-12T02:32:41.949Z,2.40
2023-03-12T02:35:31.214Z,2.30
2023-03-12T02:38:35.510Z,2.40
2023-03-12T02:41:27.967Z,2.30
2023-03-12T02:44:21.121Z,2.30
2023-03-12T02:47:12.432Z,2.40
2023-03-12T02:50:01.135Z,2.30
2023-03-12T02:52:49.854Z,2.30
2023-03-12T02:55:38.611Z,2.30
2023-03-12T02:58:27.394Z,2.20
2023-03-12T03:01:18.403Z,2.30
2023-03-12T03:04:10.125Z,2.20
2023-03-12T03:06:59.023Z,2.20
2023-03-12T03:09:47.888Z,2.10
2023-03-12T03:12:37.906Z,2.20
2023-03-12T03:15:27.955Z,2.10
2023-03-12T03:18:18.141Z,2.30
2023-03-12T03:21:08.953Z,2.20
2023-03-12T03:23:58.636Z,2.20
2023-03-12T03:26:47.617Z,2.30
2023-03-12T03:29:36.539Z,2.30
2023-03-12T03:32:25.532Z,2.20
2023-03-12T03:35:15.719Z,2.30
2023-03-12T03:38:04.906Z,2.30
2023-03-12T03:40:53.997Z,2.40
2023-03-12T03:43:42.918Z,2.50
2023-03-12T03:46:32.355Z,2.40
2023-03-12T03:49:24.909Z,2.40
2023-03-12T03:52:15.043Z,2.10
2023-03-12T03:55:03.966Z,2.20
2023-03-12T03:57:53.636Z,2.30
2023-03-12T04:00:44.974Z,2.20
2023-03-12T04:03:34.141Z,2.30
2023-03-12T04:06:24.150Z,2.30
2023-03-12T04:09:14.390Z,2.30
2023-03-12T04:12:03.413Z,2.30
2023-03-12T04:14:52.486Z,2.40
2023-03-12T04:17:41.412Z,2.20
2023-03-12T04:20:30.437Z,2.20
2023-03-12T04:23:19.307Z,2.20
2023-03-12T04:26:09.947Z,2.40
2023-03-12T04:28:59.134Z,2.50
2023-03-12T04:31:47.946Z,2.40
2023-03-12T04:34:36.702Z,2.50
2023-03-12T04:37:25.547Z,2.60
2023-03-12T04:40:15.635Z,2.70
2023-03-12T04:43:05.853Z,2.70
2023-03-12T04:45:54.639Z,2.70
2023-03-12T04:48:43.418Z,2.70
2023-03-12T04:51:33.350Z,2.60
2023-03-12T04:54:24.693Z,2.70
2023-03-12T04:57:14.104Z,2.70
2023-03-12T05:00:10.996Z,2.80
2023-03-12T05:03:00.191Z,2.80
2023-03-12T05:05:49.371Z,2.90
2023-03-12T05:08:38.063Z,2.90
2023-03-12T05:11:27.194Z,2.80
2023-03-12T05:14:16.739Z,2.70
2023-03-12T05:17:08.910Z,2.80
2023-03-12T05:19:58.662Z,2.70
2023-03-12T05:22:47.883Z,2.80
2023-03-12T05:25:40.756Z,2.80
2023-03-12T05:28:30.722Z,2.80
2023-03-12T05:31:23.160Z,2.80
2023-03-12T05:34:15.260Z,2.80
2023-03-12T05:37:06.378Z,2.80
2023-03-12T05:39:55.719Z,2.90
2023-03-12T05:42:44.573Z,2.90
2023-03-12T05:45:34.357Z,2.80
2023-03-12T05:48:23.174Z,2.80
2023-03-12T05:51:13.419Z,3.00
2023-03-12T05:54:02.551Z,2.90
2023-03-12T05:56:51.410Z,2.90
2023-03-12T05:59:41.413Z,2.80
2023-03-12T06:02:31.256Z,2.80
2023-03-12T06:05:21.023Z,2.70
2023-03-12T06:08:11.268Z,2.80
2023-03-12T06:11:00.493Z,2.90
2023-03-12T06:13:49.839Z,2.80
2023-03-12T06:16:39.530Z,3.00
2023-03-12T06:19:28.870Z,3.10
2023-03-12T06:22:17.628Z,3.00
2023-03-12T06:25:08.812Z,3.00
2023-03-12T06:27:57.747Z,3.00
2023-03-12T06:30:46.614Z,3.10
2023-03-12T06:33:36.099Z,3.20
2023-03-12T06:36:24.927Z,3.20
2023-03-12T06:39:14.016Z,3.30
2023-03-12T06:42:04.111Z,3.40
2023-03-12T06:44:53.574Z,3.40
2023-03-12T06:47:42.288Z,3.50
2023-03-12T06:50:31.109Z,3.40
2023-03-12T06:53:20.268Z,3.40
2023-03-12T06:56:09.508Z,3.30
2023-03-12T06:58:59.861Z,3.20
2023-03-12T07:01:48.540Z,3.20
2023-03-12T07:04:37.324Z,3.40
2023-03-12T07:07:26.025Z,3.20
2023-03-12T07:10:14.764Z,3.40
2023-03-12T07:13:03.519Z,3.40
2023-03-12T07:15:53.625Z,3.30
2023-03-12T07:18:42.508Z,3.40
2023-03-12T07:21:31.930Z,3.30
2023-03-12T07:24:20.692Z,3.40
2023-03-12T07:27:09.902Z,3.40
2023-03-12T07:29:58.631Z,3.40
2023-03-12T07:32:48.768Z,3.40
2023-03-12T07:35:38.821Z,3.50
2023-03-12T07:38:28.070Z,3.50
2023-03-12T07:41:16.796Z,3.50
2023-03-12T07:44:05.567Z,3.90
2023-03-12T07:46:54.658Z,3.90
2023-03-12T07:49:45.687Z,3.80
2023-03-12T07:52:34.533Z,4.10
2023-03-12T07:55:23.461Z,4.20
2023-03-12T07:58:13.043Z,4.30
2023-03-12T08:01:02.161Z,4.20
2023-03-12T08:03:51.191Z,4.30
2023-03-12T08:06:42.904Z,4.90
2023-03-12T08:09:32.499Z,5.10
2023-03-12T08:12:21.218Z,5.80
2023-03-12T08:15:12.782Z,6.30
2023-03-12T08:18:01.586Z,6.60
2023-03-12T08:20:52.722Z,6.60
2023-03-12T08:23:42.836Z,7.40
2023-03-12T08:26:31.694Z,7.10
2023-03-12T08:29:20.449Z,6.70
2023-03-12T08:32:11.060Z,6.80
2023-03-12T08:34:59.807Z,7.80
2023-03-12T08:37:48.538Z,7.20
2023-03-12T08:40:38.620Z,6.60
2023-03-12T08:43:29.387Z,5.80
2023-03-12T08:46:18.421Z,5.70
2023-03-12T08:49:07.206Z,6.20
2023-03-12T08:51:55.898Z,6.50
2023-03-12T08:54:44.772Z,7.00
2023-03-12T08:57:34.890Z,6.70
2023-03-12T09:00:25.189Z,6.40
2023-03-12T09:03:15.054Z,6.20
2023-03-12T09:06:06.141Z,6.80
2023-03-12T09:08:54.862Z,7.10
2023-03-12T09:11:43.993Z,6.90
2023-03-12T09:15:01.886Z,6.80
2023-03-12T09:17:42.969Z,6.20
2023-03-12T09:20:31.905Z,6.00
2023-03-12T09:23:20.906Z,6.00
2023-03-12T09:26:11.289Z,5.80
2023-03-12T09:29:00.017Z,5.90
2023-03-12T09:31:50.188Z,5.90
2023-03-12T09:34:38.946Z,5.70
2023-03-12T09:37:28.055Z,5.90
2023-03-12T09:40:19.233Z,5.70
2023-03-12T09:43:23.695Z,5.50
2023-03-12T09:46:17.363Z,5.50
2023-03-12T09:49:15.182Z,5.90
2023-03-12T09:52:09.939Z,6.00
2023-03-12T09:55:07.269Z,6.00
2023-03-12T09:57:57.961Z,5.90
2023-03-12T10:00:47.691Z,5.90
2023-03-12T10:04:02.460Z,5.70
2023-03-12T10:06:58.018Z,5.70
2023-03-12T10:10:22.035Z,5.80
2023-03-12T10:13:19.482Z,5.60
2023-03-12T10:16:17.703Z,5.50
2023-03-12T10:19:22.770Z,5.60
2023-03-12T10:22:25.708Z,5.70
2023-03-12T10:25:22.051Z,5.60
2023-03-12T10:28:18.389Z,5.70
2023-03-12T10:31:14.213Z,5.60
2023-03-12T10:34:12.329Z,5.60
2023-03-12T10:37:06.560Z,5.50
2023-03-12T10:39:59.719Z,5.40
2023-03-12T10:42:49.136Z,5.40
2023-03-12T10:45:43.730Z,5.30
2023-03-12T10:48:32.443Z,5.30
2023-03-12T10:51:21.182Z,5.40
2023-03-12T10:54:23.048Z,5.50
2023-03-12T10:57:15.335Z,5.40
2023-03-12T11:00:12.087Z,5.30
2023-03-12T11:03:03.708Z,5.50
2023-03-12T11:05:55.928Z,5.40
2023-03-12T11:09:16.083Z,5.70
2023-03-12T11:12:26.765Z,5.90
2023-03-12T11:15:23.044Z,6.10
2023-03-12T11:18:34.236Z,6.00
2023-03-12T11:21:24.133Z,5.80
2023-03-12T11:24:14.381Z,5.80
2023-03-12T11:27:07.552Z,5.80
2023-03-12T11:29:57.674Z,5.80
2023-03-12T11:32:49.209Z,5.70
2023-03-12T11:35:46.697Z,5.70
2023-03-12T11:38:41.450Z,5.70
2023-03-12T11:41:43.737Z,5.80
2023-03-12T11:44:40.125Z,5.90
2023-03-12T11:47:48.962Z,6.20
2023-03-12T11:50:51.789Z,6.10
2023-03-12T11:53:56.525Z,6.20
2023-03-12T11:56:50.531Z,6.20
2023-03-12T11:59:50.376Z,6.50
2023-03-12T12:03:15.024Z,6.60
2023-03-12T12:06:08.938Z,6.60
2023-03-12T12:09:12.953Z,6.70
2023-03-12T12:12:14.672Z,6.80
2023-03-12T12:15:15.940Z,6.70
2023-03-12T12:18:25.639Z,6.70
2023-03-12T12:21:28.748Z,6.50
2023-03-12T12:24:30.240Z,6.50
2023-03-12T12:27:22.566Z,6.70
2023-03-12T12:30:19.858Z,6.60
2023-03-12T12:33:24.474Z,6.30
2023-03-12T12:36:15.205Z,6.60
2023-03-12T12:39:11.372Z,6.60
2023-03-12T12:42:04.243Z,6.50
2023-03-12T12:44:55.144Z,6.60
2023-03-12T12:47:48.356Z,6.50
2023-03-12T12:50:40.289Z,6.60
2023-03-12T12:53:33.916Z,6.90
2023-03-12T12:56:30.706Z,6.80
2023-03-12T12:59:27.853Z,7.00
2023-03-12T13:02:20.353Z,7.00
2023-03-12T13:05:21.044Z,7.00
2023-03-12T13:08:35.549Z,6.70
2023-03-12T13:11:27.604Z,6.90
2023-03-12T13:14:39.512Z,6.50
2023-03-12T13:17:31.374Z,6.50
2023-03-12T13:20:22.145Z,6.70
2023-03-12T13:23:27.276Z,6.60
2023-03-12T13:26:24.962Z,6.70
2023-03-12T13:29:22.192Z,6.60
2023-03-12T13:32:38.518Z,6.60
2023-03-12T13:35:34.484Z,6.60
2023-03-12T13:38:37.922Z,6.40
2023-03-12T13:41:36.088Z,6.40
2023-03-12T13:44:33.110Z,6.60
2023-03-12T13:47:24.384Z,6.60
2023-03-12T13:50:16.716Z,6.50
2023-03-12T13:53:08.063Z,6.40
2023-03-12T13:56:08.291Z,6.40
2023-03-12T13:59:00.030Z,6.60
2023-03-12T14:01:52.203Z,6.30
2023-03-12T14:04:42.772Z,6.30
2023-03-12T14:08:11.189Z,6.30
2023-03-12T14:11:33.496Z,6.20
2023-03-12T14:14:45.189Z,6.30
2023-03-12T14:17:35.790Z,6.10
2023-03-12T14:20:25.568Z,6.00
2023-03-12T14:23:18.270Z,6.10
2023-03-12T14:26:09.939Z,6.00
2023-03-12T14:29:02.616Z,6.10
2023-03-12T14:31:52.296Z,6.00
2023-03-12T14:34:43.780Z,6.00
2023-03-12T14:37:39.403Z,5.90
2023-03-12T14:40:40.751Z,6.00
2023-03-12T14:43:33.278Z,6.00
2023-03-12T14:46:24.205Z,5.90
2023-03-12T14:49:21.651Z,5.70
2023-03-12T14:52:13.622Z,5.60
2023-03-12T14:55:05.120Z,5.60
2023-03-12T14:58:06.060Z,5.60
2023-03-12T15:01:01.045Z,5.50
2023-03-12T15:03:54.040Z,5.60
2023-03-12T15:06:47.922Z,5.60
2023-03-12T15:09:38.304Z,5.70
2023-03-12T15:12:30.740Z,5.70
2023-03-12T15:15:37.321Z,5.60
2023-03-12T15:18:31.237Z,5.70
2023-03-12T15:21:20.395Z,5.60
2023-03-12T15:24:13.496Z,5.60
2023-03-12T15:27:20.660Z,5.50
2023-03-12T15:30:27.109Z,5.60
2023-03-12T15:33:25.990Z,5.60
2023-03-12T15:36:26.713Z,5.70
2023-03-12T15:39:26.494Z,5.80
2023-03-12T15:42:19.704Z,5.70
2023-03-12T15:45:20.064Z,5.70
2023-03-12T15:48:22.879Z,5.70
2023-03-12T15:51:17.585Z,5.80
2023-03-12T15:54:26.268Z,5.70
2023-03-12T15:57:34.311Z,5.70
2023-03-12T16:00:26.983Z,5.80
2023-03-12T16:03:17.953Z,5.80
2023-03-12T16:06:07.221Z,5.80
2023-03-12T16:08:58.992Z,5.80
2023-03-12T16:11:50.324Z,5.70
2023-03-12T16:14:40.144Z,5.70
2023-03-12T16:17:29.000Z,5.70
2023-03-12T16:20:18.936Z,5.70
2023-03-12T16:23:07.840Z,5.70
2023-03-12T16:25:56.880Z,5.60
2023-03-12T16:28:46.967Z,5.60
2023-03-12T16:31:36.309Z,5.80
2023-03-12T16:34:25.498Z,5.70
2023-03-12T16:37:14.634Z,5.70
2023-03-12T16:40:04.272Z,5.70
2023-03-12T16:42:55.766Z,5.70
2023-03-12T16:45:48.091Z,5.70
2023-03-12T16:48:37.162Z,5.70
2023-03-12T16:51:28.407Z,5.70
2023-03-12T16:54:20.872Z,5.70
2023-03-12T16:57:15.950Z,5.60
2023-03-12T17:00:08.008Z,5.60
2023-03-12T17:02:59.190Z,5.60
2023-03-12T17:05:47.957Z,5.60
2023-03-12T17:08:37.195Z,5.50
2023-03-12T17:11:28.913Z,5.60
2023-03-12T17:14:22.337Z,5.60
2023-03-12T17:17:11.330Z,5.50
2023-03-12T17:20:01.449Z,5.50
2023-03-12T17:22:50.292Z,5.50
2023-03-12T17:25:44.192Z,5.50
2023-03-12T17:28:33.420Z,5.50
2023-03-12T17:31:22.196Z,5.60
2023-03-12T17:34:11.184Z,5.50
2023-03-12T17:37:04.399Z,5.60
2023-03-12T17:39:56.444Z,5.50
2023-03-12T17:42:45.198Z,5.60
2023-03-12T17:45:34.147Z,5.60
2023-03-12T17:48:23.552Z,5.60
2023-03-12T17:51:12.962Z,5.50
2023-03-12T17:54:03.621Z,5.50
2023-03-12T17:56:52.304Z,5.50
2023-03-12T17:59:41.385Z,5.60
2023-03-12T18:02:30.058Z,5.60
2023-03-12T18:05:20.093Z,5.60
2023-03-12T18:08:09.910Z,5.50
2023-03-12T18:11:01.911Z,5.60
2023-03-12T18:13:50.656Z,5.50
2023-03-12T18:16:39.699Z,5.50
2023-03-12T18:19:29.545Z,5.50
2023-03-12T18:22:19.832Z,5.50
2023-03-12T18:25:10.014Z,5.40
2023-03-12T18:28:00.098Z,5.40
2023-03-12T18:30:49.347Z,5.30
2023-03-12T18:33:38.990Z,5.50
2023-03-12T18:36:27.820Z,5.40
2023-03-12T18:39:16.795Z,5.30
2023-03-12T18:42:05.830Z,5.30
2023-03-12T18:44:55.875Z,5.30
2023-03-12T18:47:45.524Z,5.20
2023-03-12T18:50:34.379Z,5.20
2023-03-12T18:53:23.168Z,5.20
2023-03-12T18:56:15.274Z,5.10
2023-03-12T18:59:04.699Z,5.00
2023-03-12T19:01:54.925Z,5.10
2023-03-12T19:04:43.748Z,5.00
2023-03-12T19:07:32.443Z,5.10
2023-03-12T19:10:21.353Z,5.10
2023-03-12T19:13:10.382Z,4.90
2023-03-12T19:16:01.131Z,4.90
2023-03-12T19:18:52.296Z,5.00
2023-03-12T19:21:41.165Z,5.00
2023-03-12T19:24:29.882Z,5.00
2023-03-12T19:27:18.840Z,5.10
2023-03-12T19:30:09.057Z,5.20
2023-03-12T19:32:57.889Z,5.20
2023-03-12T19:35:48.336Z,5.10
2023-03-12T19:38:37.156Z,5.20
2023-03-12T19:41:26.018Z,5.10
2023-03-12T19:44:14.693Z,5.10
2023-03-12T19:47:05.583Z,5.10
2023-03-12T19:49:54.476Z,5.10
2023-03-12T19:52:44.654Z,5.10
2023-03-12T19:55:33.934Z,5.10
2023-03-12T19:58:23.131Z,5.20
2023-03-12T20:01:12.129Z,5.10
2023-03-12T20:04:00.965Z,5.10
2023-03-12T20:06:49.853Z,5.00
2023-03-12T20:09:40.132Z,5.00
2023-03-12T20:12:28.912Z,5.00
2023-03-12T20:15:18.399Z,4.90
2023-03-12T20:18:07.348Z,5.10
2023-03-12T20:20:56.069Z,5.00
2023-03-12T20:23:44.812Z,5.00
2023-03-12T20:26:35.366Z,5.00
2023-03-12T20:29:28.019Z,5.00
2023-03-12T20:32:16.973Z,5.00
2023-03-12T20:35:06.289Z,4.80
2023-03-12T20:37:54.999Z,4.80
2023-03-12T20:40:47.610Z,4.70
2023-03-12T20:43:37.712Z,4.70
2023-03-12T20:46:27.289Z,4.60
2023-03-12T20:49:16.425Z,4.60
2023-03-12T20:52:05.834Z,4.70
2023-03-12T20:54:54.636Z,4.60
2023-03-12T20:57:43.394Z,4.60
2023-03-12T21:00:33.797Z,4.60
2023-03-12T21:03:24.599Z,4.50
2023-03-12T21:06:17.242Z,4.50
2023-03-12T21:09:06.066Z,4.50
2023-03-12T21:11:54.957Z,4.50
2023-03-12T21:14:43.988Z,4.50
2023-03-12T21:17:34.600Z,4.50
2023-03-12T21:20:23.774Z,4.60
2023-03-12T21:23:13.122Z,4.60
2023-03-12T21:26:07.799Z,4.50
2023-03-12T21:28:57.860Z,4.50
2023-03-12T21:31:46.519Z,4.50
2023-03-12T21:34:36.821Z,4.50
2023-03-12T21:37:26.094Z,4.50
2023-03-12T21:40:19.389Z,4.60
2023-03-12T21:43:08.216Z,4.60
2023-03-12T21:45:57.187Z,4.70
2023-03-12T21:48:51.025Z,4.70
2023-03-12T21:51:41.125Z,4.70
2023-03-12T21:54:32.930Z,4.80
2023-03-12T21:57:21.627Z,4.70
2023-03-12T22:00:14.051Z,4.70
2023-03-12T22:03:02.855Z,4.70
2023-03-12T22:05:54.749Z,4.70
2023-03-12T22:08:47.091Z,4.50
2023-03-12T22:11:35.934Z,4.60
2023-03-12T22:14:25.548Z,4.70
2023-03-12T22:17:14.424Z,4.80
2023-03-12T22:20:05.236Z,4.50
2023-03-12T22:22:54.078Z,4.50
2023-03-12T22:25:44.124Z,4.50
2023-03-12T22:28:33.023Z,4.40
2023-03-12T22:31:23.805Z,4.60
2023-03-12T22:34:12.615Z,4.60
2023-03-12T22:37:01.354Z,4.50
2023-03-12T22:39:50.835Z,4.50
2023-03-12T22:42:41.168Z,4.30
2023-03-12T22:45:29.875Z,4.30
2023-03-12T22:48:18.502Z,4.30
2023-03-12T22:51:07.652Z,4.30
2023-03-12T22:53:56.698Z,4.30
2023-03-12T22:56:45.647Z,4.20
2023-03-12T22:59:35.792Z,4.20
2023-03-12T23:02:24.425Z,4.30
2023-03-12T23:05:13.222Z,4.30
2023-03-12T23:08:02.517Z,4.30
2023-03-12T23:10:55.992Z,4.30
2023-03-12T23:13:46.577Z,4.40
2023-03-12T23:16:36.591Z,4.50
2023-03-12T23:19:25.344Z,4.40
2023-03-12T23:22:14.194Z,4.50
2023-03-12T23:25:03.139Z,4.50
2023-03-12T23:27:52.255Z,4.50
2023-03-12T23:30:40.972Z,4.40
2023-03-12T23:33:32.213Z,4.30
2023-03-12T23:36:22.902Z,4.40
2023-03-12T23:39:12.592Z,4.30
2023-03-12T23:42:01.284Z,4.20
2023-03-12T23:44:49.965Z,4.40
2023-03-12T23:47:39.150Z,4.50
2023-03-12T23:50:29.149Z,4.50
2023-03-12T23:53:17.969Z,4.40
2023-03-12T23:56:09.169Z,4.50
2023-03-12T23:58:58.545Z,4.40
